createdAt,value
2022-09-15T00:00:32.072Z,12.90
2022-09-15T00:02:59.038Z,12.90
2022-09-15T00:05:26.181Z,12.90
2022-09-15T00:07:53.143Z,12.80
2022-09-15T00:10:20.485Z,12.80
2022-09-15T00:12:47.617Z,12.70
2022-09-15T00:15:15.231Z,12.70
2022-09-15T00:17:43.662Z,12.60
2022-09-15T00:20:11.003Z,12.60
2022-09-15T00:22:37.951Z,12.60
2022-09-15T00:25:05.973Z,12.60
2022-09-15T00:27:33.710Z,12.50
2022-09-15T00:30:00.781Z,12.50
2022-09-15T00:32:29.277Z,12.40
2022-09-15T00:34:56.258Z,12.50
2022-09-15T00:37:23.348Z,12.50
2022-09-15T00:39:50.361Z,12.40
2022-09-15T00:42:22.320Z,12.40
2022-09-15T00:44:56.838Z,12.30
2022-09-15T00:47:39.339Z,12.30
2022-09-15T00:50:12.273Z,12.20
2022-09-15T00:52:55.037Z,12.20
2022-09-15T00:55:35.885Z,12.20
2022-09-15T00:58:08.740Z,12.20
2022-09-15T01:00:36.743Z,12.20
2022-09-15T01:03:04.498Z,12.10
2022-09-15T01:05:38.045Z,12.00
2022-09-15T01:08:09.956Z,12.00
2022-09-15T01:10:39.796Z,12.00
2022-09-15T01:13:12.359Z,12.00
2022-09-15T01:16:12.583Z,11.90
2022-09-15T01:19:01.479Z,11.90
2022-09-15T01:21:46.913Z,11.90
2022-09-15T01:24:25.605Z,11.90
2022-09-15T01:27:40.500Z,11.90
2022-09-15T01:30:19.386Z,11.80
2022-09-15T01:33:22.421Z,11.90
2022-09-15T01:36:19.881Z,11.90
2022-09-15T01:39:23.295Z,11.90
2022-09-15T01:41:58.243Z,11.90
2022-09-15T01:44:29.257Z,11.90
2022-09-15T01:47:00.437Z,11.90
2022-09-15T01:49:33.901Z,11.90
2022-09-15T01:52:01.548Z,11.90
2022-09-15T01:54:37.044Z,11.90
2022-09-15T01:57:04.203Z,11.80
2022-09-15T01:59:31.240Z,11.80
2022-09-15T02:02:05.716Z,11.70
2022-09-15T02:04:51.045Z,11.70
2022-09-15T02:07:48.537Z,11.70
2022-09-15T02:10:38.314Z,11.70
2022-09-15T02:13:17.029Z,11.70
2022-09-15T02:15:56.837Z,11.60
2022-09-15T02:18:44.037Z,11.50
2022-09-15T02:21:13.737Z,11.50
2022-09-15T02:23:50.828Z,11.50
2022-09-15T02:26:21.344Z,11.50
2022-09-15T02:28:50.479Z,11.50
2022-09-15T02:31:20.039Z,11.50
2022-09-15T02:33:53.638Z,11.50
2022-09-15T02:36:21.413Z,11.50
2022-09-15T02:38:55.630Z,11.50
2022-09-15T02:41:23.890Z,11.50
2022-09-15T02:43:51.105Z,11.60
2022-09-15T02:46:21.319Z,11.60
2022-09-15T02:48:48.447Z,11.70
2022-09-15T02:51:17.133Z,11.60
2022-09-15T02:53:45.584Z,11.60
2022-09-15T02:56:12.973Z,11.70
2022-09-15T02:58:39.861Z,11.70
2022-09-15T03:01:10.150Z,11.70
2022-09-15T03:03:39.904Z,11.70
2022-09-15T03:06:16.453Z,11.70
2022-09-15T03:08:44.409Z,11.70
2022-09-15T03:11:12.142Z,11.70
2022-09-15T03:13:39.852Z,11.70
2022-09-15T03:16:16.373Z,11.60
2022-09-15T03:18:43.719Z,11.70
2022-09-15T03:21:13.649Z,11.70
2022-09-15T03:23:41.695Z,11.70
2022-09-15T03:26:10.316Z,11.70
2022-09-15T03:28:38.935Z,11.70
2022-09-15T03:31:07.230Z,11.70
2022-09-15T03:33:34.498Z,11.70
2022-09-15T03:36:02.832Z,11.80
2022-09-15T03:38:29.917Z,11.80
2022-09-15T03:41:06.255Z,11.80
2022-09-15T03:43:34.619Z,11.90
2022-09-15T03:46:02.863Z,12.00
2022-09-15T03:48:31.668Z,12.00
2022-09-15T03:50:58.652Z,12.00
2022-09-15T03:53:25.593Z,12.10
2022-09-15T03:55:52.906Z,12.20
2022-09-15T03:58:19.919Z,12.20
2022-09-15T04:00:47.406Z,12.30
2022-09-15T04:03:14.747Z,12.40
2022-09-15T04:05:42.165Z,12.40
2022-09-15T04:08:12.532Z,12.40
2022-09-15T04:10:41.205Z,12.40
2022-09-15T04:13:08.277Z,12.50
2022-09-15T04:15:35.214Z,12.60
2022-09-15T04:18:02.186Z,12.60
2022-09-15T04:20:29.063Z,12.70
2022-09-15T04:22:55.956Z,12.80
2022-09-15T04:25:24.146Z,12.80
2022-09-15T04:27:51.040Z,12.80
2022-09-15T04:30:18.045Z,12.80
2022-09-15T04:32:44.924Z,12.90
2022-09-15T04:35:12.283Z,12.90
2022-09-15T04:37:39.763Z,12.90
2022-09-15T04:40:06.998Z,13.00
2022-09-15T04:42:34.013Z,12.90
2022-09-15T04:45:00.939Z,13.00
2022-09-15T04:47:27.975Z,13.00
2022-09-15T04:49:54.853Z,13.00
2022-09-15T04:52:21.771Z,13.00
2022-09-15T04:54:48.721Z,13.00
2022-09-15T04:57:15.581Z,13.00
2022-09-15T04:59:42.481Z,13.10
2022-09-15T05:02:09.417Z,13.10
2022-09-15T05:04:36.367Z,13.10
2022-09-15T05:07:03.333Z,13.10
2022-09-15T05:09:30.973Z,13.10
2022-09-15T05:11:58.062Z,13.10
2022-09-15T05:14:25.024Z,13.10
2022-09-15T05:16:51.935Z,13.10
2022-09-15T05:19:19.605Z,13.10
2022-09-15T05:21:46.630Z,13.20
2022-09-15T05:24:13.556Z,13.20
2022-09-15T05:26:40.464Z,13.20
2022-09-15T05:29:07.472Z,13.20
2022-09-15T05:31:35.061Z,13.20
2022-09-15T05:34:04.280Z,13.20
2022-09-15T05:36:32.077Z,13.20
2022-09-15T05:38:59.357Z,13.20
2022-09-15T05:41:27.712Z,13.30
2022-09-15T05:43:58.090Z,13.30
2022-09-15T05:46:26.337Z,13.30
2022-09-15T05:48:55.035Z,13.30
2022-09-15T05:51:22.581Z,13.40
2022-09-15T05:53:49.594Z,13.40
2022-09-15T05:56:17.440Z,13.40
2022-09-15T05:58:46.754Z,13.40
2022-09-15T06:01:23.645Z,13.50
2022-09-15T06:03:51.303Z,13.50
2022-09-15T06:06:18.564Z,13.50
2022-09-15T06:08:51.727Z,13.50
2022-09-15T06:11:23.509Z,13.50
2022-09-15T06:13:50.930Z,13.60
2022-09-15T06:16:19.626Z,13.60
2022-09-15T06:18:48.590Z,13.70
2022-09-15T06:21:27.704Z,13.70
2022-09-15T06:24:03.649Z,13.70
2022-09-15T06:26:30.757Z,13.80
2022-09-15T06:29:00.497Z,13.80
2022-09-15T06:31:30.064Z,13.80
2022-09-15T06:33:57.951Z,13.90
2022-09-15T06:36:30.364Z,13.90
2022-09-15T06:38:58.448Z,13.90
2022-09-15T06:41:25.466Z,14.00
2022-09-15T06:43:53.098Z,14.00
2022-09-15T06:46:25.561Z,14.00
2022-09-15T06:48:53.637Z,14.10
2022-09-15T06:51:23.907Z,14.10
2022-09-15T06:53:53.100Z,14.10
2022-09-15T06:56:22.345Z,14.10
2022-09-15T06:58:49.646Z,14.20
2022-09-15T07:01:28.565Z,14.20
2022-09-15T07:03:58.732Z,14.20
2022-09-15T07:06:29.152Z,14.30
2022-09-15T07:08:56.751Z,14.30
2022-09-15T07:11:23.989Z,14.30
2022-09-15T07:13:51.462Z,14.40
2022-09-15T07:16:19.459Z,14.40
2022-09-15T07:18:47.562Z,14.50
2022-09-15T07:21:20.095Z,14.50
2022-09-15T07:23:48.116Z,14.60
2022-09-15T07:26:27.116Z,14.60
2022-09-15T07:28:56.601Z,14.70
2022-09-15T07:31:25.845Z,14.70
2022-09-15T07:33:53.387Z,14.70
2022-09-15T07:36:21.389Z,14.80
2022-09-15T07:38:50.015Z,14.80
2022-09-15T07:41:25.742Z,14.80
2022-09-15T07:43:55.256Z,14.80
2022-09-15T07:46:23.929Z,14.80
2022-09-15T07:48:53.315Z,14.80
2022-09-15T07:51:20.758Z,14.80
2022-09-15T07:53:48.446Z,14.80
2022-09-15T07:56:18.629Z,14.90
2022-09-15T07:58:46.898Z,14.90
2022-09-15T08:01:15.120Z,15.00
2022-09-15T08:03:44.174Z,15.10
2022-09-15T08:06:11.773Z,15.10
2022-09-15T08:08:39.785Z,15.20
2022-09-15T08:11:16.358Z,15.30
2022-09-15T08:13:49.636Z,15.40
2022-09-15T08:16:23.200Z,15.50
2022-09-15T08:18:52.914Z,15.60
2022-09-15T08:21:21.192Z,15.70
2022-09-15T08:23:56.611Z,15.80
2022-09-15T08:26:24.845Z,15.80
2022-09-15T08:28:52.151Z,15.80
2022-09-15T08:31:19.396Z,15.90
2022-09-15T08:33:51.645Z,15.90
2022-09-15T08:36:18.961Z,15.90
2022-09-15T08:38:46.306Z,15.90
2022-09-15T08:41:31.314Z,16.00
2022-09-15T08:44:32.231Z,16.00
2022-09-15T08:47:20.538Z,16.00
2022-09-15T08:50:05.089Z,16.10
2022-09-15T08:52:48.097Z,16.30
2022-09-15T08:55:22.666Z,16.30
2022-09-15T08:57:53.033Z,16.40
2022-09-15T09:00:20.228Z,16.50
2022-09-15T09:02:58.092Z,16.50
2022-09-15T09:05:31.639Z,16.50
2022-09-15T09:08:05.837Z,16.50
2022-09-15T09:10:39.786Z,16.60
2022-09-15T09:13:35.813Z,16.60
2022-09-15T09:16:09.698Z,16.70
2022-09-15T09:19:14.425Z,16.80
2022-09-15T09:21:48.229Z,17.00
2022-09-15T09:24:42.492Z,17.10
2022-09-15T09:27:14.369Z,17.20
2022-09-15T09:29:51.358Z,17.10
2022-09-15T09:32:35.150Z,17.20
2022-09-15T09:35:05.200Z,17.10
2022-09-15T09:37:33.285Z,17.10
2022-09-15T09:40:00.802Z,17.10
2022-09-15T09:42:37.184Z,17.20
2022-09-15T09:45:05.820Z,17.30
2022-09-15T09:47:36.270Z,17.30
2022-09-15T09:50:03.237Z,17.30
2022-09-15T09:52:38.505Z,17.40
2022-09-15T09:55:27.140Z,17.40
2022-09-15T09:58:10.646Z,17.60
2022-09-15T10:00:40.304Z,17.70
2022-09-15T10:03:29.391Z,17.80
2022-09-15T10:06:06.139Z,17.90
2022-09-15T10:08:35.397Z,17.90
2022-09-15T10:11:10.341Z,17.90
2022-09-15T10:13:50.824Z,17.80
2022-09-15T10:16:19.388Z,17.80
2022-09-15T10:18:53.572Z,17.70
2022-09-15T10:21:24.677Z,17.70
2022-09-15T10:23:52.320Z,17.70
2022-09-15T10:26:34.735Z,17.70
2022-09-15T10:29:16.606Z,17.70
2022-09-15T10:31:44.788Z,17.80
2022-09-15T10:34:26.345Z,17.80
2022-09-15T10:37:01.510Z,18.00
2022-09-15T10:39:40.166Z,18.10
2022-09-15T10:42:18.008Z,18.10
2022-09-15T10:44:48.004Z,18.10
2022-09-15T10:47:20.760Z,18.10
2022-09-15T10:50:07.829Z,17.90
2022-09-15T10:53:10.021Z,17.60
2022-09-15T10:55:52.827Z,17.60
2022-09-15T10:58:45.805Z,17.50
2022-09-15T11:01:28.633Z,17.30
2022-09-15T11:04:07.625Z,17.20
2022-09-15T11:07:03.632Z,17.10
2022-09-15T11:09:53.734Z,16.90
2022-09-15T11:12:45.705Z,16.60
2022-09-15T11:15:46.533Z,16.40
2022-09-15T11:18:58.130Z,16.10
2022-09-15T11:21:42.856Z,15.90
2022-09-15T11:24:13.056Z,15.80
2022-09-15T11:26:52.127Z,15.80
2022-09-15T11:29:21.984Z,15.80
2022-09-15T11:31:55.609Z,15.90
2022-09-15T11:34:31.999Z,16.00
2022-09-15T11:37:36.741Z,16.10
2022-09-15T11:40:24.115Z,16.20
2022-09-15T11:43:15.760Z,16.30
2022-09-15T11:45:49.773Z,16.40
2022-09-15T11:48:24.338Z,16.40
2022-09-15T11:50:56.277Z,16.40
2022-09-15T11:53:29.066Z,16.50
2022-09-15T11:56:09.348Z,16.60
2022-09-15T11:59:18.597Z,16.70
2022-09-15T12:02:26.066Z,16.80
2022-09-15T12:05:17.717Z,16.90
2022-09-15T12:07:47.643Z,17.00
2022-09-15T12:10:41.676Z,17.10
2022-09-15T12:13:16.790Z,17.20
2022-09-15T12:15:45.214Z,17.30
2022-09-15T12:18:37.790Z,17.50
2022-09-15T12:21:19.767Z,17.60
2022-09-15T12:23:52.689Z,17.70
2022-09-15T12:26:25.913Z,17.90
2022-09-15T12:29:04.134Z,18.00
2022-09-15T12:31:40.713Z,18.10
2022-09-15T12:34:36.760Z,18.10
2022-09-15T12:37:18.108Z,18.10
2022-09-15T12:39:47.010Z,18.10
2022-09-15T12:42:20.342Z,18.00
2022-09-15T12:44:52.605Z,18.10
2022-09-15T12:47:50.438Z,18.10
2022-09-15T12:50:17.268Z,18.00
2022-09-15T12:52:51.462Z,18.10
2022-09-15T12:55:28.865Z,18.00
2022-09-15T12:58:00.162Z,17.90
2022-09-15T13:00:33.683Z,17.90
2022-09-15T13:03:02.065Z,17.90
2022-09-15T13:05:46.706Z,17.90
2022-09-15T13:08:36.481Z,17.90
2022-09-15T13:11:11.057Z,17.90
2022-09-15T13:14:06.598Z,18.00
2022-09-15T13:17:12.215Z,17.90
2022-09-15T13:19:46.797Z,18.00
2022-09-15T13:22:13.760Z,18.00
2022-09-15T13:25:13.752Z,18.20
2022-09-15T13:28:08.800Z,18.30
2022-09-15T13:30:53.897Z,18.30
2022-09-15T13:40:25.306Z,18.50
2022-09-15T13:43:25.645Z,18.60
2022-09-15T13:46:04.775Z,18.80
2022-09-15T13:48:35.110Z,18.80
2022-09-15T13:51:06.277Z,19.00
2022-09-15T13:53:56.382Z,19.00
2022-09-15T13:56:31.377Z,18.90
2022-09-15T13:59:09.629Z,18.80
2022-09-15T14:01:39.793Z,18.80
2022-09-15T14:04:19.231Z,18.80
2022-09-15T14:06:49.196Z,18.80
2022-09-15T14:09:23.381Z,18.70
2022-09-15T14:11:57.871Z,18.70
2022-09-15T14:14:27.624Z,18.70
2022-09-15T14:16:56.580Z,18.70
2022-09-15T14:19:33.713Z,18.70
2022-09-15T14:22:22.125Z,18.70
2022-09-15T14:24:50.603Z,18.60
2022-09-15T14:27:24.809Z,18.60
2022-09-15T14:29:57.769Z,18.50
2022-09-15T14:32:26.789Z,18.40
2022-09-15T14:34:57.080Z,18.40
2022-09-15T14:37:28.394Z,18.30
2022-09-15T14:39:57.976Z,18.30
2022-09-15T14:42:36.086Z,18.30
2022-09-15T14:48:06.501Z,18.20
2022-09-15T14:50:33.873Z,18.20
2022-09-15T14:53:09.942Z,18.30
2022-09-15T14:55:54.776Z,18.30
2022-09-15T14:58:43.060Z,18.30
2022-09-15T15:01:38.760Z,18.20
2022-09-15T15:04:14.626Z,18.30
2022-09-15T15:06:50.308Z,18.10
2022-09-15T15:09:34.204Z,18.00
2022-09-15T15:12:06.726Z,18.10
2022-09-15T15:14:35.647Z,18.10
2022-09-15T15:17:08.166Z,18.10
2022-09-15T15:19:39.603Z,18.00
2022-09-15T15:22:17.324Z,18.00
2022-09-15T15:24:46.181Z,18.00
2022-09-15T15:27:31.933Z,18.10
2022-09-15T15:30:26.530Z,18.00
2022-09-15T15:32:54.217Z,18.00
2022-09-15T15:35:21.555Z,17.90
2022-09-15T15:37:48.858Z,18.10
2022-09-15T15:40:23.371Z,18.30
2022-09-15T15:43:21.288Z,18.50
2022-09-15T15:45:58.661Z,18.60
2022-09-15T15:48:26.568Z,18.60
2022-09-15T15:50:54.340Z,18.70
2022-09-15T15:53:21.563Z,18.50
2022-09-15T15:55:48.447Z,18.30
2022-09-15T15:58:16.216Z,18.20
2022-09-15T16:00:44.910Z,18.00
2022-09-15T16:03:12.918Z,17.80
2022-09-15T16:05:41.672Z,17.70
2022-09-15T16:08:16.793Z,17.60
2022-09-15T16:10:47.838Z,17.50
2022-09-15T16:13:19.841Z,17.50
2022-09-15T16:15:47.330Z,17.30
2022-09-15T16:18:14.865Z,17.30
2022-09-15T16:20:42.305Z,17.20
2022-09-15T16:23:13.855Z,17.00
2022-09-15T16:25:59.375Z,16.90
2022-09-15T16:28:26.572Z,16.70
2022-09-15T16:30:53.460Z,16.60
2022-09-15T16:33:20.873Z,16.40
2022-09-15T16:35:55.223Z,16.30
2022-09-15T16:38:25.424Z,16.20
2022-09-15T16:40:52.705Z,16.10
2022-09-15T16:43:21.527Z,16.00
2022-09-15T16:45:50.489Z,15.90
2022-09-15T16:48:17.835Z,15.90
2022-09-15T16:50:56.040Z,15.90
2022-09-15T16:53:32.653Z,15.90
2022-09-15T16:55:59.569Z,15.80
2022-09-15T16:58:26.537Z,15.80
2022-09-15T17:00:53.618Z,15.80
2022-09-15T17:03:23.845Z,15.80
2022-09-15T17:05:52.999Z,15.70
2022-09-15T17:08:23.402Z,15.70
2022-09-15T17:10:52.768Z,15.70
2022-09-15T17:13:25.096Z,15.60
2022-09-15T17:15:55.504Z,15.60
2022-09-15T17:18:23.009Z,15.50
2022-09-15T17:20:51.235Z,15.40
2022-09-15T17:23:24.474Z,15.40
2022-09-15T17:25:53.376Z,15.30
2022-09-15T17:28:22.727Z,15.30
2022-09-15T17:30:58.246Z,15.30
2022-09-15T17:33:25.810Z,15.20
2022-09-15T17:35:53.356Z,15.10
2022-09-15T17:38:21.957Z,15.10
2022-09-15T17:40:55.099Z,15.10
2022-09-15T17:43:27.821Z,15.00
2022-09-15T17:45:55.757Z,15.00
2022-09-15T17:48:22.980Z,14.90
2022-09-15T17:50:50.825Z,14.80
2022-09-15T17:53:23.428Z,14.70
2022-09-15T17:55:51.698Z,14.70
2022-09-15T17:58:19.158Z,14.70
2022-09-15T18:00:46.435Z,14.60
2022-09-15T18:03:33.322Z,14.60
2022-09-15T18:06:04.192Z,14.50
2022-09-15T18:08:32.792Z,14.40
2022-09-15T18:11:00.782Z,14.30
2022-09-15T18:13:30.101Z,14.20
2022-09-15T18:15:58.330Z,14.20
2022-09-15T18:18:27.421Z,14.20
2022-09-15T18:20:57.844Z,14.20
2022-09-15T18:23:30.694Z,14.10
2022-09-15T18:25:58.105Z,14.10
2022-09-15T18:28:25.616Z,14.10
2022-09-15T18:30:55.601Z,14.00
2022-09-15T18:33:26.315Z,14.00
2022-09-15T18:35:56.416Z,13.90
2022-09-15T18:38:24.579Z,13.90
2022-09-15T18:40:54.035Z,13.80
2022-09-15T18:43:22.370Z,13.80
2022-09-15T18:45:50.194Z,13.80
2022-09-15T18:48:17.234Z,13.80
2022-09-15T18:50:45.429Z,13.80
2022-09-15T18:53:12.789Z,13.80
2022-09-15T18:55:43.640Z,13.70
2022-09-15T18:58:11.817Z,13.70
2022-09-15T19:00:39.443Z,13.70
2022-09-15T19:03:09.481Z,13.70
2022-09-15T19:05:37.309Z,13.60
2022-09-15T19:08:04.586Z,13.70
2022-09-15T19:10:32.432Z,13.70
2022-09-15T19:12:59.331Z,13.70
2022-09-15T19:15:26.282Z,13.60
2022-09-15T19:17:53.225Z,13.60
2022-09-15T19:20:20.269Z,13.60
2022-09-15T19:22:47.599Z,13.60
2022-09-15T19:25:15.046Z,13.60
2022-09-15T19:27:43.053Z,13.60
2022-09-15T19:30:11.876Z,13.50
2022-09-15T19:32:39.604Z,13.50
2022-09-15T19:35:08.357Z,13.40
2022-09-15T19:37:37.644Z,13.40
2022-09-15T19:40:08.561Z,13.40
2022-09-15T19:42:36.629Z,13.40
2022-09-15T19:45:04.132Z,13.40
2022-09-15T19:47:31.221Z,13.40
2022-09-15T19:49:58.298Z,13.30
2022-09-15T19:52:25.228Z,13.30
2022-09-15T19:54:52.166Z,13.30
2022-09-15T19:57:19.629Z,13.30
2022-09-15T19:59:46.966Z,13.30
2022-09-15T20:02:13.955Z,13.40
2022-09-15T20:04:41.281Z,13.40
2022-09-15T20:07:08.208Z,13.40
2022-09-15T20:09:35.497Z,13.40
2022-09-15T20:12:03.370Z,13.40
2022-09-15T20:14:31.390Z,13.40
2022-09-15T20:17:01.178Z,13.40
2022-09-15T20:19:29.516Z,13.40
2022-09-15T20:21:56.516Z,13.40
2022-09-15T20:24:24.275Z,13.40
2022-09-15T20:26:51.403Z,13.40
2022-09-15T20:29:19.572Z,13.40
2022-09-15T20:31:47.276Z,13.40
2022-09-15T20:34:14.631Z,13.40
2022-09-15T20:36:41.882Z,13.30
2022-09-15T20:39:10.873Z,13.30
2022-09-15T20:41:37.800Z,13.20
2022-09-15T20:44:05.975Z,13.20
2022-09-15T20:46:33.517Z,13.20
2022-09-15T20:49:01.451Z,13.10
2022-09-15T20:51:31.628Z,13.10
2022-09-15T20:54:00.213Z,13.10
2022-09-15T20:56:29.191Z,13.10
2022-09-15T20:59:00.113Z,13.10
2022-09-15T21:01:36.549Z,13.10
2022-09-15T21:04:06.570Z,13.10
2022-09-15T21:06:34.332Z,13.10
2022-09-15T21:09:01.715Z,13.00
2022-09-15T21:11:28.852Z,13.00
2022-09-15T21:13:56.934Z,13.10
2022-09-15T21:16:26.574Z,13.10
2022-09-15T21:18:55.322Z,13.10
2022-09-15T21:21:25.169Z,13.00
2022-09-15T21:23:54.996Z,13.00
2022-09-15T21:26:24.952Z,13.10
2022-09-15T21:28:53.305Z,13.10
2022-09-15T21:31:22.659Z,13.10
2022-09-15T21:33:51.168Z,13.10
2022-09-15T21:36:23.162Z,13.10
2022-09-15T21:38:52.075Z,13.00
2022-09-15T21:41:21.437Z,13.00
2022-09-15T21:43:49.673Z,13.00
2022-09-15T21:46:18.858Z,13.00
2022-09-15T21:48:48.707Z,13.00
2022-09-15T21:51:23.960Z,13.00
2022-09-15T21:53:52.855Z,12.90
2022-09-15T21:56:19.897Z,13.00
2022-09-15T21:58:46.897Z,13.00
2022-09-15T22:01:24.293Z,13.00
2022-09-15T22:04:00.433Z,13.00
2022-09-15T22:06:31.796Z,12.90
2022-09-15T22:09:06.856Z,13.00
2022-09-15T22:11:34.300Z,12.90
2022-09-15T22:14:02.756Z,13.00
2022-09-15T22:16:30.399Z,13.00
2022-09-15T22:18:57.514Z,13.00
2022-09-15T22:21:27.231Z,13.00
2022-09-15T22:23:56.151Z,13.10
2022-09-15T22:26:26.345Z,13.00
2022-09-15T22:28:53.602Z,13.00
2022-09-15T22:31:22.060Z,13.00
2022-09-15T22:33:49.193Z,13.00
2022-09-15T22:36:29.535Z,13.00
2022-09-15T22:39:04.826Z,13.00
2022-09-15T22:41:34.599Z,13.00
2022-09-15T22:44:01.965Z,13.00
2022-09-15T22:46:28.965Z,13.00
2022-09-15T22:48:55.922Z,13.00
2022-09-15T22:51:22.962Z,13.00
2022-09-15T22:53:54.049Z,13.00
2022-09-15T22:56:21.439Z,13.00
2022-09-15T22:58:49.553Z,13.00
2022-09-15T23:01:21.570Z,13.00
2022-09-15T23:03:53.447Z,12.90
2022-09-15T23:06:21.098Z,12.90
2022-09-15T23:08:52.663Z,12.90
2022-09-15T23:11:20.154Z,12.80
2022-09-15T23:13:47.026Z,12.80
2022-09-15T23:16:14.014Z,12.80
2022-09-15T23:18:41.064Z,12.80
2022-09-15T23:21:10.348Z,12.80
2022-09-15T23:23:39.741Z,12.70
2022-09-15T23:26:09.896Z,12.70
2022-09-15T23:28:37.569Z,12.60
2022-09-15T23:31:04.654Z,12.60
2022-09-15T23:33:32.446Z,12.50
2022-09-15T23:36:03.067Z,12.50
2022-09-15T23:38:30.514Z,12.50
2022-09-15T23:40:57.543Z,12.50
2022-09-15T23:43:24.628Z,12.50
2022-09-15T23:45:51.636Z,12.50
2022-09-15T23:48:18.727Z,12.40
2022-09-15T23:50:46.455Z,12.30
2022-09-15T23:53:13.503Z,12.30
2022-09-15T23:55:40.509Z,12.30
2022-09-15T23:58:07.481Z,12.30
